Time;durP1;ratioP1;P1;durP2;ratioP2;P2;SDS_P1;SDS_P2;PMS_P1;PMS_P2;Temp;Humidity;BMP_temperature;BMP_pressure;BME280_temperature;BME280_humidity;BME280_pressure;Samples;Min_cycle;Max_cycle;Signal;HPM_P1;HPM_P2
2022/11/05 00:10:29;;;;;;;6.25;3.42;;;9.30;99.90;;;;;;5077396;28;20044;-67
2022/11/05 00:18:30;;;;;;;6.00;3.55;;;9.30;99.90;;;;;;5078465;28;20122;-64
2022/11/05 00:20:57;;;;;;;5.28;2.75;;;9.30;99.90;;;;;;5079406;28;20147;-67
2022/11/05 00:26:10;;;;;;;12.30;4.45;;;9.30;99.90;;;;;;5076109;28;20139;-66
2022/11/05 00:28:40;;;;;;;5.93;3.00;;;9.30;99.90;;;;;;5077679;28;21447;-66
2022/11/05 00:31:09;;;;;;;3.38;2.85;;;9.30;99.90;;;;;;5056810;28;20059;-67
2022/11/05 00:33:37;;;;;;;6.80;3.28;;;9.30;99.90;;;;;;5076084;28;20055;-67
2022/11/05 00:36:07;;;;;;;6.55;3.53;;;9.30;99.90;;;;;;5075261;28;20062;-66
2022/11/05 00:38:34;;;;;;;5.38;3.33;;;9.30;99.90;;;;;;5075032;28;20337;-66
2022/11/05 00:41:01;;;;;;;5.07;3.25;;;9.30;99.90;;;;;;5075826;28;20055;-67
2022/11/05 00:46:14;;;;;;;4.47;2.40;;;9.30;99.90;;;;;;5075826;28;20650;-68
2022/11/05 00:51:34;;;;;;;5.72;4.60;;;9.20;99.90;;;;;;5045390;28;20039;-66
2022/11/05 00:54:00;;;;;;;5.38;3.28;;;9.20;99.90;;;;;;5075967;28;20060;-66
2022/11/05 00:56:27;;;;;;;5.85;3.47;;;9.20;99.90;;;;;;5076355;28;20328;-67
2022/11/05 00:58:55;;;;;;;6.30;3.80;;;9.20;99.90;;;;;;5078764;28;20070;-67
2022/11/05 01:01:22;;;;;;;5.85;3.63;;;9.20;99.90;;;;;;5075506;28;20434;-66
2022/11/05 01:03:49;;;;;;;4.95;4.20;;;9.20;99.90;;;;;;5077533;28;20063;-68
2022/11/05 01:06:17;;;;;;;6.00;3.65;;;9.10;99.90;;;;;;5074709;28;20107;-66
2022/11/05 01:08:45;;;;;;;6.07;5.10;;;9.10;99.90;;;;;;5077573;28;20134;-66
2022/11/05 01:11:33;;;;;;;5.75;3.28;;;9.10;99.90;;;;;;5077178;28;20066;-66
2022/11/05 01:14:11;;;;;;;4.13;2.97;;;9.10;99.90;;;;;;5076885;28;20041;-67
2022/11/05 01:16:39;;;;;;;5.40;3.97;;;9.10;99.90;;;;;;5078145;28;20044;-67
2022/11/05 01:19:08;;;;;;;9.35;4.22;;;9.10;99.90;;;;;;5080140;28;20067;-66
2022/11/05 01:21:35;;;;;;;7.47;4.03;;;9.10;99.90;;;;;;5081164;28;20123;-66
2022/11/05 01:24:02;;;;;;;8.23;3.83;;;9.10;99.90;;;;;;5078324;28;20063;-66
2022/11/05 01:26:29;;;;;;;6.32;4.05;;;9.10;99.90;;;;;;5067721;28;20468;-66
2022/11/05 01:28:59;;;;;;;5.80;4.50;;;9.10;99.90;;;;;;5060524;28;20044;-66
2022/11/05 01:31:27;;;;;;;6.60;4.10;;;9.10;99.90;;;;;;5042486;28;20040;-67
2022/11/05 01:33:54;;;;;;;11.15;4.25;;;9.10;99.90;;;;;;5059578;28;20693;-67
2022/11/05 01:36:21;;;;;;;7.28;3.92;;;9.10;99.90;;;;;;5062286;28;20066;-66
2022/11/05 01:38:48;;;;;;;7.80;3.85;;;9.10;99.90;;;;;;5059685;28;20048;-67
2022/11/05 01:41:15;;;;;;;5.72;4.15;;;9.10;99.90;;;;;;5057964;28;20059;-66
2022/11/05 01:43:56;;;;;;;6.43;3.92;;;9.10;99.90;;;;;;5061520;28;20052;-66
2022/11/05 01:46:32;;;;;;;9.82;4.28;;;9.10;99.90;;;;;;5058174;28;20131;-68
2022/11/05 01:49:21;;;;;;;4.15;3.35;;;9.10;99.90;;;;;;5061160;28;20045;-67
2022/11/05 01:51:50;;;;;;;4.45;4.00;;;9.00;99.90;;;;;;5061070;28;20878;-66
2022/11/05 01:54:21;;;;;;;7.35;4.32;;;9.00;99.90;;;;;;5039274;28;20052;-67
2022/11/05 01:56:57;;;;;;;5.57;3.83;;;9.00;99.90;;;;;;5056669;28;20051;-66
2022/11/05 01:59:37;;;;;;;8.00;4.32;;;9.10;99.90;;;;;;5061074;28;20083;-67
2022/11/05 02:02:06;;;;;;;6.20;4.10;;;9.00;99.90;;;;;;5059489;28;20117;-68
2022/11/05 02:04:49;;;;;;;5.18;4.05;;;9.00;99.90;;;;;;5063315;28;20127;-66
2022/11/05 02:07:17;;;;;;;9.02;3.78;;;9.00;99.90;;;;;;5062741;28;20098;-66
2022/11/05 02:09:52;;;;;;;5.88;4.05;;;9.00;99.90;;;;;;5061824;28;20049;-67
2022/11/05 02:12:20;;;;;;;6.80;4.20;;;9.10;99.90;;;;;;5057191;28;20155;-67
2022/11/05 02:14:47;;;;;;;6.28;3.75;;;9.10;99.90;;;;;;5063996;28;20086;-66
2022/11/05 02:17:31;;;;;;;9.90;3.88;;;9.10;99.90;;;;;;5063399;28;20470;-66
2022/11/05 02:20:32;;;;;;;6.80;4.03;;;9.10;99.90;;;;;;5061898;28;20047;-66
2022/11/05 02:23:27;;;;;;;3.97;2.72;;;9.10;99.90;;;;;;5056659;28;20065;-66
2022/11/05 02:25:57;;;;;;;8.65;4.55;;;9.10;99.90;;;;;;5069092;28;20056;-67
2022/11/05 02:29:03;;;;;;;11.90;4.18;;;9.10;99.90;;;;;;5082069;28;20040;-67
2022/11/05 02:32:02;;;;;;;6.55;4.30;;;9.10;99.90;;;;;;5079489;28;20113;-67
2022/11/05 02:34:45;;;;;;;7.45;4.05;;;9.20;99.90;;;;;;5075871;28;20074;-66
2022/11/05 02:37:32;;;;;;;9.13;5.07;;;9.20;99.90;;;;;;5076676;28;20066;-66
2022/11/05 02:40:10;;;;;;;8.05;5.03;;;9.20;99.90;;;;;;5077165;28;20531;-67
2022/11/05 02:42:46;;;;;;;7.93;4.88;;;9.10;99.90;;;;;;5077244;28;20055;-68
2022/11/05 02:45:44;;;;;;;18.42;7.18;;;9.20;99.90;;;;;;5077231;28;20068;-67
2022/11/05 02:48:41;;;;;;;6.90;4.85;;;9.20;99.90;;;;;;5074443;28;20356;-67
2022/11/05 02:51:22;;;;;;;13.55;6.43;;;9.10;99.90;;;;;;5076121;28;20062;-66
2022/11/05 02:53:54;;;;;;;10.23;5.60;;;9.20;99.90;;;;;;5078065;28;20048;-67
2022/11/05 02:56:30;;;;;;;6.43;5.32;;;9.10;99.90;;;;;;5078788;28;20075;-67
2022/11/05 02:58:57;;;;;;;9.60;6.20;;;9.10;99.90;;;;;;5079132;28;20477;-66
2022/11/05 03:01:24;;;;;;;9.20;6.05;;;9.10;99.90;;;;;;5075321;28;21483;-67
2022/11/05 03:03:55;;;;;;;6.75;4.50;;;9.10;99.90;;;;;;5052917;28;20052;-67
2022/11/05 03:06:48;;;;;;;11.75;6.78;;;9.10;99.90;;;;;;5074620;28;20055;-67
2022/11/05 03:09:33;;;;;;;11.38;7.80;;;9.10;99.90;;;;;;5078090;28;21416;-67
2022/11/05 03:12:20;;;;;;;9.05;5.97;;;9.10;99.90;;;;;;5078495;28;20061;-67
2022/11/05 03:14:59;;;;;;;10.35;5.88;;;9.00;99.90;;;;;;5056378;28;20137;-66
2022/11/05 03:17:32;;;;;;;11.45;5.57;;;9.10;99.90;;;;;;5078514;28;20138;-66
2022/11/05 03:20:14;;;;;;;11.32;6.32;;;9.10;99.90;;;;;;5075614;28;20129;-68
2022/11/05 03:23:08;;;;;;;10.02;6.15;;;9.10;99.90;;;;;;5077710;28;20499;-68
2022/11/05 03:25:43;;;;;;;9.82;6.47;;;9.00;99.90;;;;;;5076436;28;20056;-67
2022/11/05 03:28:12;;;;;;;8.15;6.50;;;9.10;99.90;;;;;;5076829;28;20044;-66
2022/11/05 03:30:41;;;;;;;9.27;6.50;;;9.10;99.90;;;;;;5079662;28;20075;-66
2022/11/05 03:33:17;;;;;;;6.55;5.63;;;9.00;99.90;;;;;;5076481;28;20091;-67
2022/11/05 03:35:53;;;;;;;8.27;5.70;;;9.00;99.90;;;;;;5077862;28;20051;-67
2022/11/05 03:38:26;;;;;;;8.70;6.25;;;9.00;99.90;;;;;;5074438;28;20048;-67
2022/11/05 03:40:56;;;;;;;9.60;6.18;;;9.00;99.90;;;;;;5078792;28;20055;-70
2022/11/05 03:43:28;;;;;;;6.57;5.97;;;9.00;99.90;;;;;;5078595;28;20044;-67
2022/11/05 03:46:02;;;;;;;8.63;6.80;;;9.00;99.90;;;;;;5075367;28;20071;-67
2022/11/05 03:48:30;;;;;;;10.57;6.97;;;9.00;99.90;;;;;;5074770;28;20050;-67
2022/11/05 03:51:35;;;;;;;9.82;6.40;;;9.00;99.90;;;;;;5078169;28;20048;-66
2022/11/05 03:54:03;;;;;;;10.43;6.70;;;8.90;99.90;;;;;;5078745;28;20047;-66
2022/11/05 03:56:39;;;;;;;10.30;6.78;;;8.90;99.90;;;;;;5075760;28;20108;-67
2022/11/05 03:59:09;;;;;;;11.57;6.45;;;8.90;99.90;;;;;;5077736;28;20061;-67
2022/11/05 04:01:37;;;;;;;9.05;6.50;;;8.90;99.90;;;;;;5077199;28;20055;-67
2022/11/05 04:04:05;;;;;;;8.25;5.75;;;8.90;99.90;;;;;;5080233;28;20056;-66
2022/11/05 04:14:50;;;;;;;8.98;6.50;;;8.90;99.90;;;;;;5062017;28;20139;-65
2022/11/05 04:17:17;;;;;;;7.82;5.78;;;8.90;99.90;;;;;;5076863;28;20054;-66
2022/11/05 04:25:19;;;;;;;7.97;6.80;;;8.90;99.90;;;;;;5081704;28;20121;-66
2022/11/05 04:27:46;;;;;;;9.25;6.35;;;8.90;99.90;;;;;;5082464;28;20512;-66
2022/11/05 04:30:18;;;;;;;10.43;6.05;;;8.90;99.90;;;;;;5078302;28;20473;-67
2022/11/05 04:32:58;;;;;;;13.82;7.53;;;8.90;99.90;;;;;;5081471;28;20047;-66
2022/11/05 04:35:27;;;;;;;10.88;7.47;;;8.90;99.90;;;;;;5075306;28;20089;-71
2022/11/05 04:37:54;;;;;;;7.57;6.10;;;8.80;99.90;;;;;;5068892;28;20052;-67
2022/11/05 04:40:21;;;;;;;10.48;7.47;;;8.80;99.90;;;;;;5077526;28;20062;-66
2022/11/05 04:42:48;;;;;;;7.90;6.53;;;8.80;99.90;;;;;;5078182;28;20481;-66
2022/11/05 04:45:15;;;;;;;14.43;7.25;;;8.80;99.90;;;;;;5078454;28;20167;-67
2022/11/05 04:47:42;;;;;;;10.95;7.53;;;8.80;99.90;;;;;;5079751;28;20055;-67
2022/11/05 04:50:11;;;;;;;6.82;5.75;;;8.80;99.90;;;;;;5079914;28;20044;-67
2022/11/05 04:52:38;;;;;;;8.77;5.82;;;8.80;99.90;;;;;;5080960;28;20148;-68
2022/11/05 04:55:06;;;;;;;13.43;7.57;;;8.80;99.90;;;;;;5079889;28;20076;-66
2022/11/05 04:57:33;;;;;;;17.10;7.60;;;8.80;99.90;;;;;;5079062;28;20071;-68
2022/11/05 05:00:00;;;;;;;8.55;7.63;;;8.80;99.90;;;;;;5079107;28;20356;-67
2022/11/05 05:02:27;;;;;;;9.63;7.20;;;8.80;99.90;;;;;;5081634;28;20052;-67
2022/11/05 05:04:54;;;;;;;10.13;6.85;;;8.80;99.90;;;;;;5081253;28;20542;-68
2022/11/05 05:07:21;;;;;;;10.73;7.40;;;8.80;99.90;;;;;;5081659;28;20062;-67
2022/11/05 05:09:48;;;;;;;8.25;6.65;;;8.80;99.90;;;;;;5078980;28;20048;-67
2022/11/05 05:12:15;;;;;;;10.55;7.03;;;8.80;99.90;;;;;;5078293;28;20051;-68
2022/11/05 05:14:42;;;;;;;12.52;7.00;;;8.80;99.90;;;;;;5079231;28;20139;-68
2022/11/05 05:17:09;;;;;;;10.40;7.47;;;8.80;99.90;;;;;;5080667;28;20128;-67
2022/11/05 05:21:37;;;;;;;11.85;7.03;;;8.80;99.90;;;;;;5078785;28;20598;-68
2022/11/05 05:22:22;;;;;;;10.30;8.05;;;8.80;99.90;;;;;;5078954;28;20048;-69
2022/11/05 05:24:49;;;;;;;11.30;7.68;;;8.80;99.90;;;;;;5078588;28;20581;-66
2022/11/05 05:27:19;;;;;;;11.80;6.95;;;8.80;99.90;;;;;;5060120;28;20858;-67
2022/11/05 05:29:46;;;;;;;12.70;7.35;;;8.80;99.90;;;;;;5061871;28;20145;-67
2022/11/05 05:32:13;;;;;;;12.13;7.85;;;8.80;99.90;;;;;;5055648;28;20048;-67
2022/11/05 05:34:39;;;;;;;17.08;8.40;;;8.90;99.90;;;;;;5039386;28;20045;-67
2022/11/05 05:37:06;;;;;;;12.90;8.05;;;8.80;99.90;;;;;;5058437;28;20159;-67
2022/11/05 05:39:33;;;;;;;17.90;8.60;;;8.80;99.90;;;;;;5059711;28;20048;-67
2022/11/05 05:42:00;;;;;;;15.93;9.45;;;8.80;99.90;;;;;;5058462;28;20362;-67
2022/11/05 05:44:27;;;;;;;12.40;8.80;;;8.90;99.90;;;;;;5059374;28;20149;-66
2022/11/05 05:46:54;;;;;;;9.05;7.20;;;8.90;99.90;;;;;;5059701;28;20911;-67
2022/11/05 05:49:21;;;;;;;8.68;7.82;;;8.90;99.90;;;;;;5058654;28;20122;-67
2022/11/05 05:51:48;;;;;;;12.07;7.25;;;8.80;99.90;;;;;;5059493;28;20056;-67
2022/11/05 05:54:15;;;;;;;12.15;8.70;;;8.80;99.90;;;;;;5055897;28;20056;-68
2022/11/05 05:56:43;;;;;;;10.90;7.10;;;8.90;99.90;;;;;;5057235;28;20488;-68
2022/11/05 05:59:10;;;;;;;14.45;9.25;;;8.80;99.90;;;;;;5058781;28;20076;-68
2022/11/05 06:01:38;;;;;;;11.50;7.57;;;8.80;99.90;;;;;;5058769;28;20135;-68
2022/11/05 06:04:05;;;;;;;8.57;7.07;;;8.90;99.90;;;;;;5058528;28;20091;-67
2022/11/05 06:06:32;;;;;;;9.77;7.90;;;8.80;99.90;;;;;;5062419;28;20055;-67
2022/11/05 06:08:59;;;;;;;15.65;8.95;;;8.90;99.90;;;;;;5064704;28;20391;-67
2022/11/05 06:11:26;;;;;;;14.77;9.40;;;8.90;99.90;;;;;;5065006;28;20668;-67
2022/11/05 06:13:53;;;;;;;12.07;7.95;;;8.90;99.90;;;;;;5061096;28;20829;-67
2022/11/05 06:16:20;;;;;;;12.90;7.43;;;8.90;99.90;;;;;;5058555;28;20040;-66
2022/11/05 06:18:47;;;;;;;9.20;8.30;;;8.80;99.90;;;;;;5058740;28;20061;-68
2022/11/05 06:21:16;;;;;;;14.30;8.13;;;8.80;99.90;;;;;;5059708;28;20179;-68
2022/11/05 06:23:44;;;;;;;10.32;8.80;;;8.80;99.90;;;;;;5060869;28;20064;-67
2022/11/05 06:26:14;;;;;;;12.13;8.85;;;8.80;99.90;;;;;;5073600;28;20056;-67
2022/11/05 06:28:42;;;;;;;11.82;8.38;;;8.80;99.90;;;;;;5081635;28;20048;-67
2022/11/05 06:31:09;;;;;;;12.60;8.43;;;8.70;99.90;;;;;;5082492;28;20048;-66
2022/11/05 06:33:37;;;;;;;17.55;10.40;;;8.70;99.90;;;;;;5075582;28;20139;-67
2022/11/05 06:36:05;;;;;;;11.90;8.32;;;8.70;99.90;;;;;;5078163;28;20150;-67
2022/11/05 06:38:35;;;;;;;11.57;9.85;;;8.70;99.90;;;;;;5077527;28;20666;-69
2022/11/05 06:41:02;;;;;;;15.00;9.80;;;8.60;99.90;;;;;;5076761;28;20043;-67
2022/11/05 06:43:36;;;;;;;15.80;9.13;;;8.60;99.90;;;;;;5080605;28;20139;-67
2022/11/05 06:46:03;;;;;;;13.55;9.73;;;8.60;99.90;;;;;;5077683;28;20183;-67
2022/11/05 06:48:30;;;;;;;10.55;9.48;;;8.60;99.90;;;;;;5075382;28;20193;-69
2022/11/05 06:50:57;;;;;;;12.45;8.85;;;8.60;99.90;;;;;;5078748;28;20055;-68
2022/11/05 06:53:24;;;;;;;10.57;8.85;;;8.60;99.90;;;;;;5077514;28;20138;-67
2022/11/05 06:55:51;;;;;;;13.40;9.20;;;8.50;99.90;;;;;;5078559;28;20048;-67
2022/11/05 06:58:18;;;;;;;15.15;12.70;;;8.50;99.90;;;;;;5077995;28;20387;-67
2022/11/05 07:00:45;;;;;;;12.35;9.75;;;8.50;99.90;;;;;;5077240;28;20048;-69
2022/11/05 07:03:12;;;;;;;13.65;10.70;;;8.60;99.90;;;;;;5076831;28;20159;-69
2022/11/05 07:05:46;;;;;;;10.32;8.73;;;8.50;99.90;;;;;;5077256;28;20457;-68
2022/11/05 07:08:14;;;;;;;13.02;9.65;;;8.50;99.90;;;;;;5057058;28;20064;-69
2022/11/05 07:10:41;;;;;;;11.25;9.35;;;8.40;99.90;;;;;;5080000;28;20048;-66
2022/11/05 07:13:08;;;;;;;11.70;9.88;;;8.40;99.90;;;;;;5078030;28;20170;-66
2022/11/05 07:15:36;;;;;;;11.07;8.10;;;8.40;99.90;;;;;;5079424;28;20054;-67
2022/11/05 07:18:06;;;;;;;11.40;10.05;;;8.40;99.90;;;;;;5075536;28;20147;-67
2022/11/05 07:20:33;;;;;;;12.63;8.75;;;8.40;99.90;;;;;;5077242;28;20052;-67
2022/11/05 07:23:06;;;;;;;9.65;8.63;;;8.40;99.90;;;;;;5077075;28;20413;-67
2022/11/05 07:25:33;;;;;;;12.43;8.85;;;8.40;99.90;;;;;;5078707;28;20048;-68
2022/11/05 07:28:01;;;;;;;18.10;9.32;;;8.40;99.90;;;;;;5077656;28;20493;-67
2022/11/05 07:30:28;;;;;;;10.32;7.75;;;8.40;99.90;;;;;;5056657;28;20167;-66
2022/11/05 07:32:55;;;;;;;10.60;7.80;;;8.50;99.90;;;;;;5079462;28;20052;-69
2022/11/05 07:35:23;;;;;;;12.75;9.05;;;8.50;99.90;;;;;;5077318;28;20162;-68
2022/11/05 07:37:52;;;;;;;14.65;8.98;;;8.50;99.90;;;;;;5076424;28;20049;-66
2022/11/05 07:40:21;;;;;;;11.10;8.15;;;8.50;99.90;;;;;;5076845;28;20052;-69
2022/11/05 07:42:53;;;;;;;9.05;8.02;;;8.50;99.90;;;;;;5060256;28;20055;-66
2022/11/05 07:45:20;;;;;;;13.75;8.07;;;8.50;99.90;;;;;;5079027;28;20653;-67
2022/11/05 07:47:52;;;;;;;8.23;7.13;;;8.50;99.90;;;;;;5075740;28;20559;-67
2022/11/05 07:50:21;;;;;;;8.07;7.25;;;8.50;99.90;;;;;;5076866;28;20055;-66
2022/11/05 07:52:49;;;;;;;8.23;7.43;;;8.50;99.90;;;;;;5077179;28;20147;-67
2022/11/05 07:55:17;;;;;;;14.32;7.88;;;8.50;99.90;;;;;;5075576;28;20130;-69
2022/11/05 07:57:46;;;;;;;12.75;6.65;;;8.50;99.90;;;;;;5057408;28;20445;-69
2022/11/05 08:00:15;;;;;;;7.22;6.05;;;8.50;99.90;;;;;;5077458;28;20194;-69
2022/11/05 08:02:42;;;;;;;9.55;6.40;;;8.50;99.90;;;;;;5080300;28;20058;-66
2022/11/05 08:05:10;;;;;;;13.00;6.97;;;8.50;99.90;;;;;;5083859;28;20052;-67
2022/11/05 08:07:37;;;;;;;11.13;6.82;;;8.50;99.90;;;;;;5077977;28;20044;-70
2022/11/05 08:10:04;;;;;;;16.05;6.75;;;8.50;99.90;;;;;;5078084;28;20328;-68
2022/11/05 08:12:31;;;;;;;8.30;5.40;;;8.50;99.90;;;;;;5079226;28;20048;-67
2022/11/05 08:14:58;;;;;;;9.23;7.20;;;8.50;99.90;;;;;;5079686;28;20052;-67
2022/11/05 08:17:25;;;;;;;10.13;5.97;;;8.50;99.90;;;;;;5076061;28;20055;-67
2022/11/05 08:19:52;;;;;;;7.68;5.03;;;8.50;99.90;;;;;;5075916;28;20079;-66
2022/11/05 08:22:19;;;;;;;5.63;5.05;;;8.50;99.90;;;;;;5080510;28;20050;-69
2022/11/05 08:24:46;;;;;;;7.20;6.20;;;8.50;99.90;;;;;;5078881;28;20040;-73
2022/11/05 08:27:13;;;;;;;8.73;5.88;;;8.50;99.90;;;;;;5082955;28;20054;-70
2022/11/05 08:29:40;;;;;;;7.22;4.95;;;8.50;99.90;;;;;;5081394;28;20488;-69
2022/11/05 08:32:07;;;;;;;7.03;4.88;;;8.50;99.90;;;;;;5079555;28;20133;-70
2022/11/05 08:34:34;;;;;;;7.30;6.00;;;8.50;99.90;;;;;;5078583;28;20058;-69
2022/11/05 08:37:01;;;;;;;5.65;4.90;;;8.50;99.90;;;;;;5077292;28;20048;-67
2022/11/05 08:39:28;;;;;;;7.80;5.18;;;8.50;99.90;;;;;;5077930;28;20115;-67
2022/11/05 08:41:55;;;;;;;6.25;5.13;;;8.50;99.90;;;;;;5076473;28;20044;-66
2022/11/05 08:44:22;;;;;;;7.50;4.80;;;8.60;99.90;;;;;;5076272;28;20048;-67
2022/11/05 08:46:49;;;;;;;5.15;4.53;;;8.50;99.90;;;;;;5076579;28;20089;-67
2022/11/05 08:49:16;;;;;;;7.45;5.30;;;8.60;99.90;;;;;;5076819;28;20062;-70
2022/11/05 08:51:43;;;;;;;7.85;5.43;;;8.60;99.90;;;;;;5077480;28;20563;-69
2022/11/05 08:54:10;;;;;;;6.35;5.45;;;8.60;99.90;;;;;;5075881;28;20040;-71
2022/11/05 08:56:37;;;;;;;6.43;5.20;;;8.60;99.90;;;;;;5076499;28;20410;-68
2022/11/05 08:59:05;;;;;;;4.88;4.38;;;8.60;99.90;;;;;;5077724;28;20052;-67
2022/11/05 09:01:32;;;;;;;5.00;4.38;;;8.60;99.90;;;;;;5076443;28;20651;-67
2022/11/05 09:03:59;;;;;;;6.00;4.93;;;8.60;99.90;;;;;;5077978;28;20090;-68
2022/11/05 09:06:26;;;;;;;6.15;4.70;;;8.60;99.90;;;;;;5077533;28;20054;-66
2022/11/05 09:08:54;;;;;;;4.20;3.67;;;8.60;99.90;;;;;;5076984;28;20497;-66
2022/11/05 09:11:20;;;;;;;4.30;3.65;;;8.70;99.90;;;;;;5076947;28;22109;-67
2022/11/05 09:13:47;;;;;;;7.15;3.92;;;8.70;99.90;;;;;;5076668;28;20139;-67
2022/11/05 09:16:19;;;;;;;4.47;4.18;;;8.70;99.90;;;;;;5071583;28;20051;-68
2022/11/05 09:18:46;;;;;;;5.82;4.00;;;8.70;99.90;;;;;;5076097;28;20058;-67
2022/11/05 09:21:13;;;;;;;4.18;3.83;;;8.70;99.90;;;;;;5074463;28;20058;-67
2022/11/05 09:23:40;;;;;;;3.83;3.53;;;8.70;99.90;;;;;;5077931;28;20052;-67
2022/11/05 09:26:08;;;;;;;4.38;3.55;;;8.70;99.90;;;;;;5076981;28;20143;-68
2022/11/05 09:28:35;;;;;;;6.93;5.15;;;8.80;99.90;;;;;;5078718;28;20087;-68
2022/11/05 09:31:07;;;;;;;3.72;3.42;;;8.80;99.90;;;;;;5080346;28;20107;-68
2022/11/05 09:33:36;;;;;;;4.63;3.53;;;8.70;99.90;;;;;;5081038;28;20063;-67
2022/11/05 09:36:04;;;;;;;6.13;4.05;;;8.80;99.90;;;;;;5080302;28;20377;-70
2022/11/05 09:38:33;;;;;;;3.80;3.05;;;8.80;99.90;;;;;;5079842;28;20110;-67
2022/11/05 09:41:06;;;;;;;4.28;3.85;;;8.80;99.90;;;;;;5081579;28;20153;-70
2022/11/05 09:43:37;;;;;;;9.63;5.30;;;8.90;99.90;;;;;;5075801;28;20041;-69
2022/11/05 09:46:12;;;;;;;4.20;3.85;;;8.90;99.90;;;;;;5084037;28;20059;-67
2022/11/05 09:48:41;;;;;;;4.55;3.78;;;8.90;99.90;;;;;;5079622;28;20068;-67
2022/11/05 09:51:12;;;;;;;6.35;4.10;;;8.90;99.90;;;;;;5078816;28;20074;-67
2022/11/05 09:53:45;;;;;;;4.10;3.75;;;8.90;99.90;;;;;;5083095;28;20066;-67
2022/11/05 09:56:33;;;;;;;8.38;3.78;;;8.90;99.90;;;;;;5080196;28;20054;-70
2022/11/05 09:59:05;;;;;;;5.15;3.53;;;8.90;99.90;;;;;;5082901;28;20125;-66
2022/11/05 10:01:35;;;;;;;3.80;3.50;;;8.90;99.90;;;;;;5083386;28;20048;-68
2022/11/05 10:04:17;;;;;;;3.92;3.63;;;8.90;99.90;;;;;;5083920;28;20059;-68
2022/11/05 10:06:58;;;;;;;3.13;2.83;;;9.00;99.90;;;;;;5078168;28;20047;-67
2022/11/05 10:09:46;;;;;;;3.85;3.55;;;9.10;99.90;;;;;;5078692;28;20063;-67
2022/11/05 10:12:21;;;;;;;3.50;3.20;;;9.10;99.90;;;;;;5081510;28;20531;-68
2022/11/05 10:15:09;;;;;;;4.93;2.60;;;9.10;99.90;;;;;;5077326;28;20064;-69
2022/11/05 10:17:39;;;;;;;4.90;3.08;;;9.20;99.90;;;;;;5075678;28;20083;-69
2022/11/05 10:20:34;;;;;;;4.40;2.22;;;9.20;99.90;;;;;;5077739;28;20682;-70
2022/11/05 10:23:09;;;;;;;4.97;2.92;;;9.20;99.90;;;;;;5079854;28;20079;-66
2022/11/05 10:25:40;;;;;;;3.70;2.35;;;9.20;99.90;;;;;;5076198;28;20052;-66
2022/11/05 10:28:19;;;;;;;4.13;2.78;;;9.20;99.90;;;;;;5081598;28;20915;-66
2022/11/05 10:30:51;;;;;;;2.97;2.67;;;9.20;99.90;;;;;;5083693;28;20048;-68
2022/11/05 10:33:52;;;;;;;4.55;3.70;;;9.20;99.90;;;;;;5081199;28;20090;-67
2022/11/05 10:36:28;;;;;;;3.40;3.10;;;9.20;99.90;;;;;;5065936;28;20052;-67
2022/11/05 10:39:13;;;;;;;3.75;3.45;;;9.30;99.90;;;;;;5081428;28;20074;-67
2022/11/05 10:41:52;;;;;;;4.03;2.55;;;9.30;99.90;;;;;;5081698;28;20040;-65
2022/11/05 10:44:41;;;;;;;4.55;2.92;;;9.20;99.90;;;;;;5080900;28;20569;-67
2022/11/05 10:47:14;;;;;;;3.22;2.63;;;9.30;99.90;;;;;;5075614;28;20132;-67
2022/11/05 10:49:53;;;;;;;4.93;3.58;;;9.30;99.90;;;;;;5076587;28;20117;-70
2022/11/05 10:52:24;;;;;;;5.20;3.75;;;9.30;99.90;;;;;;5078333;28;20051;-66
2022/11/05 10:54:55;;;;;;;4.85;3.83;;;9.30;99.90;;;;;;5078906;28;20040;-67
2022/11/05 10:57:33;;;;;;;3.78;3.40;;;9.30;99.90;;;;;;5079815;28;20521;-66
2022/11/05 11:00:18;;;;;;;4.93;3.53;;;9.30;99.90;;;;;;5074243;28;20474;-67
2022/11/05 11:02:52;;;;;;;3.67;3.35;;;9.30;99.90;;;;;;5076944;28;20730;-65
2022/11/05 11:05:22;;;;;;;3.70;2.95;;;9.30;99.90;;;;;;5080545;28;20046;-65
2022/11/05 11:07:58;;;;;;;4.07;3.67;;;9.30;99.90;;;;;;5079731;28;20134;-67
2022/11/05 11:10:27;;;;;;;3.58;2.95;;;9.30;99.90;;;;;;5078637;28;20382;-65
2022/11/05 11:12:55;;;;;;;5.18;3.60;;;9.20;99.90;;;;;;5082551;28;20060;-66
2022/11/05 11:15:33;;;;;;;4.90;3.15;;;9.30;99.90;;;;;;5077347;28;20060;-66
2022/11/05 11:18:24;;;;;;;4.15;3.58;;;9.30;99.90;;;;;;5078229;28;20085;-65
2022/11/05 11:20:51;;;;;;;3.35;3.05;;;9.30;99.90;;;;;;5068714;28;20041;-66
2022/11/05 11:23:18;;;;;;;4.25;3.92;;;9.20;99.90;;;;;;5080239;28;20219;-67
2022/11/05 11:25:49;;;;;;;5.97;3.95;;;9.20;99.90;;;;;;5082034;28;20052;-67
2022/11/05 11:28:25;;;;;;;4.90;4.32;;;9.20;99.90;;;;;;5080718;28;20363;-67
2022/11/05 11:31:10;;;;;;;4.13;3.72;;;9.20;99.90;;;;;;5078505;28;20044;-65
2022/11/05 11:33:39;;;;;;;6.75;4.22;;;9.20;99.90;;;;;;5076949;28;20117;-67
2022/11/05 11:36:09;;;;;;;4.82;4.40;;;9.20;99.90;;;;;;5080580;28;20515;-66
2022/11/05 11:38:36;;;;;;;5.70;4.87;;;9.20;99.90;;;;;;5075533;28;20056;-64
2022/11/05 11:41:24;;;;;;;5.55;4.43;;;9.20;99.90;;;;;;5074353;28;20376;-64
2022/11/05 11:44:18;;;;;;;6.45;5.20;;;9.20;99.90;;;;;;5079046;28;20429;-65
2022/11/05 11:46:51;;;;;;;5.43;5.03;;;9.20;99.90;;;;;;5069606;28;20366;-65
2022/11/05 11:49:48;;;;;;;4.70;4.30;;;9.20;99.90;;;;;;5083272;28;20044;-65
2022/11/05 11:52:25;;;;;;;9.73;4.68;;;9.20;99.90;;;;;;5079213;28;25262;-67
2022/11/05 11:55:05;;;;;;;4.22;3.92;;;9.20;99.90;;;;;;5078989;28;20486;-65
2022/11/05 11:57:52;;;;;;;5.07;4.57;;;9.20;99.90;;;;;;5076817;28;20056;-64
2022/11/05 12:00:22;;;;;;;4.18;3.78;;;9.20;99.90;;;;;;5074060;28;20860;-65
2022/11/05 12:02:55;;;;;;;;;;;9.20;99.90;;;;;;5077350;28;20111;-64
2022/11/05 12:05:57;;;;;;;6.47;5.65;;;9.20;99.90;;;;;;5072707;28;20022;-67
2022/11/05 12:08:33;;;;;;;8.88;5.85;;;9.20;99.90;;;;;;5074655;28;20051;-66
2022/11/05 12:11:17;;;;;;;6.18;5.68;;;9.30;99.90;;;;;;5076941;28;20553;-65
2022/11/05 12:13:49;;;;;;;6.05;5.55;;;9.30;99.90;;;;;;5076981;28;20556;-64
2022/11/05 12:16:48;;;;;;;7.63;6.05;;;9.20;99.90;;;;;;5074646;28;20071;-67
2022/11/05 12:19:29;;;;;;;7.13;6.43;;;9.30;99.90;;;;;;5077709;28;20162;-64
2022/11/05 12:22:05;;;;;;;6.32;5.72;;;9.20;99.90;;;;;;5079198;28;20109;-66
2022/11/05 12:25:07;;;;;;;8.43;6.40;;;9.20;99.90;;;;;;5076367;28;20055;-65
2022/11/05 12:27:34;;;;;;;7.45;6.85;;;9.20;99.90;;;;;;5018490;28;20067;-65
2022/11/05 12:30:10;;;;;;;7.72;6.82;;;9.20;99.90;;;;;;5076411;28;20516;-65
2022/11/05 12:32:37;;;;;;;8.20;7.45;;;9.20;99.90;;;;;;5078649;28;20139;-67
2022/11/05 12:35:19;;;;;;;7.70;6.97;;;9.20;99.90;;;;;;5078552;28;20072;-67
2022/11/05 12:38:18;;;;;;;7.85;7.15;;;9.20;99.90;;;;;;5079523;28;20498;-67
2022/11/05 12:41:04;;;;;;;11.35;7.55;;;9.20;99.90;;;;;;5078791;28;20055;-64
2022/11/05 12:44:04;;;;;;;9.15;7.47;;;9.20;99.90;;;;;;5083757;28;20538;-64
2022/11/05 12:46:59;;;;;;;7.20;6.50;;;9.20;99.90;;;;;;5077165;28;20773;-63
2022/11/05 12:50:03;;;;;;;8.13;7.05;;;9.20;99.90;;;;;;5076093;28;20225;-64
2022/11/05 12:53:05;;;;;;;8.82;8.02;;;9.30;99.90;;;;;;5081753;28;20452;-66
2022/11/05 12:55:41;;;;;;;8.95;7.30;;;9.30;99.90;;;;;;5074732;28;20638;-63
2022/11/05 12:58:19;;;;;;;8.02;7.30;;;9.30;99.90;;;;;;5072021;28;20129;-64
2022/11/05 13:00:55;;;;;;;7.53;6.82;;;9.30;99.90;;;;;;5074210;28;20083;-65
2022/11/05 13:03:35;;;;;;;7.82;7.03;;;9.40;99.90;;;;;;5075777;28;20040;-63
2022/11/05 13:06:11;;;;;;;;;;;9.40;99.90;;;;;;5073888;28;20067;-68
2022/11/05 13:08:46;;;;;;;6.72;6.13;;;9.40;99.90;;;;;;5081656;28;20628;-64
2022/11/05 13:11:22;;;;;;;6.70;6.07;;;9.40;99.90;;;;;;5083096;28;20390;-65
2022/11/05 13:13:57;;;;;;;7.68;6.97;;;9.40;99.90;;;;;;5081155;28;20136;-64
2022/11/05 13:16:39;;;;;;;7.07;6.38;;;9.40;99.90;;;;;;5082572;28;20048;-69
2022/11/05 13:19:35;;;;;;;13.50;7.65;;;9.40;99.90;;;;;;5079999;28;20047;-64
2022/11/05 13:22:12;;;;;;;7.43;6.63;;;9.40;99.90;;;;;;5079262;28;20051;-66
2022/11/05 13:24:51;;;;;;;8.35;7.55;;;9.40;99.90;;;;;;5083991;28;20486;-64
2022/11/05 13:27:18;;;;;;;6.82;6.22;;;9.40;99.90;;;;;;5066954;28;20080;-63
2022/11/05 13:29:52;;;;;;;6.82;5.93;;;9.40;99.90;;;;;;5084189;28;20132;-64
2022/11/05 13:32:26;;;;;;;7.38;6.65;;;9.40;99.90;;;;;;5083249;28;20044;-63
2022/11/05 13:35:01;;;;;;;6.88;6.28;;;9.40;99.90;;;;;;5078953;28;20124;-69
2022/11/05 13:40:40;;;;;;;6.50;5.47;;;9.40;99.90;;;;;;5077796;28;20048;-66
2022/11/05 13:43:16;;;;;;;7.15;6.55;;;9.40;99.90;;;;;;5087897;28;20057;-64
2022/11/05 13:46:08;;;;;;;7.63;6.50;;;9.40;99.90;;;;;;5079174;28;20063;-67
2022/11/05 13:48:55;;;;;;;7.85;6.63;;;9.40;99.90;;;;;;5070759;28;20082;-65
2022/11/05 13:51:45;;;;;;;7.38;6.57;;;9.40;99.90;;;;;;5078469;28;20062;-67
2022/11/05 13:54:44;;;;;;;7.43;6.72;;;9.40;99.90;;;;;;5071928;28;20083;-66
2022/11/05 13:57:46;;;;;;;6.70;6.10;;;9.40;99.90;;;;;;5073654;28;20379;-66
2022/11/05 14:00:19;;;;;;;6.63;6.07;;;9.40;99.90;;;;;;5078713;28;20119;-67
2022/11/05 14:03:03;;;;;;;9.15;6.93;;;9.40;99.90;;;;;;5078681;28;20059;-65
2022/11/05 14:05:40;;;;;;;8.93;7.25;;;9.40;99.90;;;;;;5076678;28;20146;-65
2022/11/05 14:08:11;;;;;;;7.47;6.78;;;9.40;99.90;;;;;;5078700;28;20062;-66